Forest Green, Missouri
Current Conditions -  °F | °C
As of 3:35 AM on Saturday 20 Dec 2014 (Local Time) from KVER Reporting Station
Haze Haze  
Wind Chill: 31°   Ceiling: 200
Heat Index: 36°   Visibility: 1.2mi
Dew Point: 36°   Wind: 6mph
Humidity: 100%   Direction: 130°SE
Pressure: 30.21"   Gusts: NA
Location:  39.4605°N, 92.8061°W
Report Text: KVER 200935Z AUTO 13005KT 1 1/4SM BR OVC002 02/02 A3021 RMK AO2 T00210022
Loading
Personal Weather Stations






























Interactive Weather Map New forecast layout! Learn more

10-Day Weather Forecast

Advertisements
Track Severe Weather on mobile